Time;durP1;ratioP1;P1;durP2;ratioP2;P2;SDS_P1;SDS_P2;PMS_P1;PMS_P2;Temp;Humidity;BMP_temperature;BMP_pressure;BME280_temperature;BME280_humidity;BME280_pressure;Samples;Min_cycle;Max_cycle;Signal;HPM_P1;HPM_P2
2020/12/10 00:01:53;;;;;;;75.20;27.70;;;;;;;;;;5040669;28;20061;-82
2020/12/10 00:04:22;;;;;;;74.10;28.67;;;;;;;;;;5047006;28;20131;-81
2020/12/10 00:06:49;;;;;;;72.18;28.27;;;;;;;;;;5078517;28;20083;-82
2020/12/10 00:09:18;;;;;;;73.43;28.33;;;;;;;;;;5074746;28;20052;-82
2020/12/10 00:11:52;;;;;;;76.25;28.75;;;;;;;;;;5065636;28;20350;-82
2020/12/10 00:14:19;;;;;;;100.03;31.83;;;;;;;;;;5070980;28;20048;-82
2020/12/10 00:16:49;;;;;;;83.03;28.88;;;;;;;;;;5079136;28;20131;-82
2020/12/10 00:19:21;;;;;;;89.45;31.92;;;;;;;;;;5063305;28;20115;-82
2020/12/10 00:21:47;;;;;;;82.28;28.77;;;;;;;;;;5069628;28;20032;-82
2020/12/10 00:24:18;;;;;;;89.75;31.38;;;;;;;;;;5056952;28;20032;-81
2020/12/10 00:26:55;;;;;;;88.38;34.03;;;;;;;;;;5089312;28;20036;-81
2020/12/10 00:29:28;;;;;;;82.03;31.10;;;;;;;;;;5085361;28;20048;-82
2020/12/10 00:31:54;;;;;;;92.80;33.78;;;;;;;;;;5079677;28;20064;-82
2020/12/10 00:34:23;;;;;;;86.25;31.42;;;;;;;;;;5080914;28;20060;-82
2020/12/10 00:36:56;;;;;;;86.07;31.85;;;;;;;;;;5081625;28;20076;-82
2020/12/10 00:39:26;;;;;;;89.30;32.25;;;;;;;;;;5063341;28;20396;-82
2020/12/10 00:41:53;;;;;;;93.88;33.78;;;;;;;;;;5078710;28;20052;-82
2020/12/10 00:44:26;;;;;;;86.82;31.75;;;;;;;;;;5079693;28;20048;-82
2020/12/10 00:46:52;;;;;;;92.20;33.50;;;;;;;;;;5062705;28;20079;-82
2020/12/10 00:49:21;;;;;;;81.63;31.63;;;;;;;;;;5079595;28;20075;-82
2020/12/10 00:51:52;;;;;;;84.15;30.55;;;;;;;;;;5079215;28;20125;-82
2020/12/10 00:54:19;;;;;;;93.60;33.13;;;;;;;;;;5046364;28;20049;-82
2020/12/10 00:56:52;;;;;;;96.68;33.95;;;;;;;;;;5042390;28;20072;-82
2020/12/10 00:59:23;;;;;;;84.72;30.65;;;;;;;;;;5059783;28;20049;-82
2020/12/10 01:01:57;;;;;;;86.78;31.63;;;;;;;;;;5070932;28;20103;-83
2020/12/10 01:04:37;;;;;;;88.13;32.58;;;;;;;;;;5061998;28;20048;-82
2020/12/10 01:07:04;;;;;;;86.32;31.13;;;;;;;;;;5050072;28;20080;-82
2020/12/10 01:09:36;;;;;;;93.72;34.25;;;;;;;;;;5062300;28;20153;-82
2020/12/10 01:12:04;;;;;;;91.32;31.88;;;;;;;;;;5072467;28;20060;-82
2020/12/10 01:14:33;;;;;;;85.38;33.38;;;;;;;;;;5048474;28;20444;-82
2020/12/10 01:17:11;;;;;;;89.55;33.30;;;;;;;;;;5058401;28;20052;-82
2020/12/10 01:19:43;;;;;;;82.32;32.95;;;;;;;;;;5045412;28;20052;-82
2020/12/10 01:22:13;;;;;;;89.85;32.50;;;;;;;;;;5042109;28;20048;-82
2020/12/10 01:24:40;;;;;;;87.30;32.40;;;;;;;;;;5041494;28;20495;-82
2020/12/10 01:27:07;;;;;;;83.82;32.45;;;;;;;;;;5058113;28;20076;-82
2020/12/10 01:29:34;;;;;;;94.35;32.00;;;;;;;;;;5059181;28;20053;-82
2020/12/10 01:32:01;;;;;;;84.00;32.92;;;;;;;;;;5041899;28;20088;-82
2020/12/10 01:34:31;;;;;;;96.70;33.95;;;;;;;;;;5076385;28;20107;-82
2020/12/10 01:37:05;;;;;;;98.70;34.25;;;;;;;;;;5060396;28;20052;-82
2020/12/10 01:39:31;;;;;;;87.55;33.22;;;;;;;;;;5041402;28;20071;-82
2020/12/10 01:42:01;;;;;;;89.20;33.83;;;;;;;;;;5058509;28;20056;-83
2020/12/10 01:44:34;;;;;;;99.75;34.55;;;;;;;;;;5040553;28;20238;-82
2020/12/10 01:47:00;;;;;;;89.90;31.95;;;;;;;;;;5040426;28;20397;-82
2020/12/10 01:49:31;;;;;;;96.00;34.45;;;;;;;;;;5060934;28;20048;-82
2020/12/10 01:51:57;;;;;;;92.32;32.90;;;;;;;;;;5061387;28;20396;-82
2020/12/10 01:54:33;;;;;;;101.32;34.58;;;;;;;;;;5078747;28;20052;-82
2020/12/10 01:56:59;;;;;;;97.38;35.78;;;;;;;;;;5065483;28;20053;-82
2020/12/10 01:59:27;;;;;;;91.70;32.67;;;;;;;;;;5082357;28;20048;-82
2020/12/10 02:01:58;;;;;;;90.95;32.15;;;;;;;;;;5066513;28;20045;-83
2020/12/10 02:04:25;;;;;;;87.68;31.60;;;;;;;;;;5049164;28;20106;-82
2020/12/10 02:06:52;;;;;;;85.40;32.10;;;;;;;;;;5062857;28;20060;-82
2020/12/10 02:09:26;;;;;;;79.32;31.75;;;;;;;;;;5057861;28;20117;-82
2020/12/10 02:11:59;;;;;;;90.78;32.13;;;;;;;;;;5063325;28;20333;-82
2020/12/10 02:14:32;;;;;;;93.88;32.47;;;;;;;;;;5079793;28;20053;-82
2020/12/10 02:17:00;;;;;;;84.65;31.77;;;;;;;;;;5082237;28;20071;-82
2020/12/10 02:19:26;;;;;;;90.95;34.10;;;;;;;;;;5048589;28;20053;-82
2020/12/10 02:21:52;;;;;;;86.28;33.10;;;;;;;;;;5045614;28;20475;-82
2020/12/10 02:24:30;;;;;;;91.70;33.78;;;;;;;;;;5059188;28;20143;-82
2020/12/10 02:26:59;;;;;;;90.00;33.38;;;;;;;;;;5065265;28;20078;-82
2020/12/10 02:29:28;;;;;;;82.22;31.38;;;;;;;;;;5076742;28;20135;-82
2020/12/10 02:31:57;;;;;;;83.50;30.55;;;;;;;;;;5057798;28;20052;-82
2020/12/10 02:34:24;;;;;;;86.32;32.20;;;;;;;;;;5055197;28;20201;-82
2020/12/10 02:36:53;;;;;;;83.57;31.55;;;;;;;;;;5073817;28;20052;-82
2020/12/10 02:39:22;;;;;;;81.18;31.17;;;;;;;;;;5074833;28;20409;-82
2020/12/10 02:41:51;;;;;;;79.68;31.90;;;;;;;;;;5064428;28;20069;-82
2020/12/10 02:44:18;;;;;;;83.72;32.65;;;;;;;;;;5064119;28;20049;-83
2020/12/10 02:46:46;;;;;;;93.22;34.67;;;;;;;;;;5065034;28;20052;-82
2020/12/10 02:49:20;;;;;;;91.40;32.83;;;;;;;;;;5064425;28;20045;-82
2020/12/10 02:51:46;;;;;;;78.97;29.95;;;;;;;;;;5062691;28;20059;-83
2020/12/10 02:54:13;;;;;;;87.75;32.45;;;;;;;;;;5046464;28;20056;-82
2020/12/10 02:56:42;;;;;;;83.95;31.92;;;;;;;;;;5062606;28;20123;-82
2020/12/10 02:59:11;;;;;;;81.25;31.00;;;;;;;;;;5040790;28;20056;-82
2020/12/10 03:01:40;;;;;;;90.75;32.03;;;;;;;;;;5058563;28;20048;-83
2020/12/10 03:04:08;;;;;;;82.85;31.17;;;;;;;;;;5056304;28;20057;-81
2020/12/10 03:06:34;;;;;;;79.32;30.48;;;;;;;;;;5089826;28;20091;-81
2020/12/10 03:09:00;;;;;;;78.78;32.30;;;;;;;;;;5089249;28;20043;-81
2020/12/10 03:11:27;;;;;;;84.25;32.22;;;;;;;;;;5070186;28;20028;-81
2020/12/10 03:13:54;;;;;;;90.95;32.35;;;;;;;;;;5062730;28;20052;-81
2020/12/10 03:16:20;;;;;;;83.78;32.67;;;;;;;;;;5054925;28;20135;-81
2020/12/10 03:18:46;;;;;;;84.63;31.80;;;;;;;;;;5078896;28;20042;-81
2020/12/10 03:21:13;;;;;;;81.78;32.33;;;;;;;;;;5096007;28;20044;-81
2020/12/10 03:23:42;;;;;;;84.55;32.30;;;;;;;;;;5069967;28;20056;-82
2020/12/10 03:26:12;;;;;;;92.85;35.63;;;;;;;;;;5088566;28;20115;-81
2020/12/10 03:28:39;;;;;;;84.75;33.05;;;;;;;;;;5088441;28;20060;-81
2020/12/10 03:31:05;;;;;;;86.10;32.95;;;;;;;;;;5068782;28;20132;-81
2020/12/10 03:33:37;;;;;;;79.85;31.83;;;;;;;;;;5069327;28;20045;-81
2020/12/10 03:36:04;;;;;;;88.00;31.83;;;;;;;;;;5061202;28;20194;-81
2020/12/10 03:38:30;;;;;;;90.15;28.80;;;;;;;;;;5077709;28;20074;-81
2020/12/10 03:40:56;;;;;;;67.97;27.33;;;;;;;;;;5083801;28;20094;-80
2020/12/10 03:43:25;;;;;;;78.85;29.50;;;;;;;;;;5081752;28;20067;-81
2020/12/10 03:45:52;;;;;;;90.78;32.13;;;;;;;;;;5069604;28;20059;-81
2020/12/10 03:48:21;;;;;;;87.72;31.75;;;;;;;;;;5067357;28;20570;-81
2020/12/10 03:50:54;;;;;;;80.55;30.88;;;;;;;;;;5086260;28;20151;-79
2020/12/10 03:53:20;;;;;;;90.35;31.00;;;;;;;;;;5067102;28;20149;-79
2020/12/10 03:55:46;;;;;;;83.88;29.55;;;;;;;;;;5065181;28;20421;-81
2020/12/10 03:58:18;;;;;;;90.07;29.02;;;;;;;;;;5064096;28;20072;-79
2020/12/10 04:00:52;;;;;;;73.55;28.63;;;;;;;;;;5066895;28;20052;-79
2020/12/10 04:03:19;;;;;;;91.97;30.17;;;;;;;;;;5083930;28;20052;-82
2020/12/10 04:05:48;;;;;;;82.00;30.17;;;;;;;;;;5067606;28;20056;-79
2020/12/10 04:08:17;;;;;;;86.43;30.60;;;;;;;;;;5066609;28;20049;-80
2020/12/10 04:10:44;;;;;;;91.93;30.70;;;;;;;;;;5085771;28;20048;-80
2020/12/10 04:13:12;;;;;;;90.65;30.63;;;;;;;;;;5081525;28;20110;-80
2020/12/10 04:15:39;;;;;;;96.07;31.88;;;;;;;;;;5076414;28;20045;-80
2020/12/10 04:18:08;;;;;;;96.65;31.70;;;;;;;;;;5073677;28;20056;-81
2020/12/10 04:20:37;;;;;;;96.18;30.80;;;;;;;;;;5084076;28;20040;-81
2020/12/10 04:23:03;;;;;;;103.78;32.80;;;;;;;;;;5052453;28;20063;-80
2020/12/10 04:25:29;;;;;;;102.90;32.22;;;;;;;;;;5068501;28;20055;-80
2020/12/10 04:27:55;;;;;;;105.55;35.22;;;;;;;;;;5072046;28;20103;-80
2020/12/10 04:30:25;;;;;;;100.07;32.63;;;;;;;;;;5075756;28;20049;-80
2020/12/10 04:32:51;;;;;;;104.20;33.72;;;;;;;;;;5083980;28;20052;-81
2020/12/10 04:35:17;;;;;;;96.28;34.00;;;;;;;;;;5081454;28;20110;-81
2020/12/10 04:37:55;;;;;;;101.03;33.17;;;;;;;;;;5076532;28;20324;-81
2020/12/10 04:40:24;;;;;;;99.93;33.60;;;;;;;;;;5064073;28;20085;-81
2020/12/10 04:42:55;;;;;;;113.30;33.92;;;;;;;;;;5083243;28;20076;-80
2020/12/10 04:45:25;;;;;;;109.30;32.97;;;;;;;;;;5081785;28;20154;-81
2020/12/10 04:47:53;;;;;;;108.22;32.97;;;;;;;;;;5079959;28;20114;-81
2020/12/10 04:50:22;;;;;;;104.82;30.98;;;;;;;;;;5081785;28;20645;-81
2020/12/10 04:52:52;;;;;;;118.38;33.38;;;;;;;;;;5064953;28;20056;-80
2020/12/10 04:55:20;;;;;;;121.78;32.42;;;;;;;;;;5075827;28;20064;-80
2020/12/10 04:57:47;;;;;;;122.65;35.80;;;;;;;;;;5069972;28;20049;-81
2020/12/10 05:03:26;;;;;;;113.10;35.30;;;;;;;;;;5075198;28;20052;-81
2020/12/10 05:05:53;;;;;;;121.63;34.58;;;;;;;;;;5046177;28;20120;-81
2020/12/10 05:08:31;;;;;;;121.25;37.65;;;;;;;;;;5060075;28;20428;-80
2020/12/10 05:10:59;;;;;;;142.88;38.53;;;;;;;;;;5044182;28;20056;-81
2020/12/10 05:13:27;;;;;;;123.18;39.00;;;;;;;;;;5044062;28;20049;-81
2020/12/10 05:15:57;;;;;;;120.75;37.13;;;;;;;;;;5054627;28;20123;-81
2020/12/10 05:18:23;;;;;;;124.85;36.67;;;;;;;;;;5075645;28;20055;-81
2020/12/10 05:20:58;;;;;;;144.52;39.60;;;;;;;;;;5069133;28;20052;-81
2020/12/10 05:23:36;;;;;;;128.30;37.63;;;;;;;;;;5054425;28;20041;-81
2020/12/10 05:26:04;;;;;;;129.60;37.17;;;;;;;;;;5070269;28;20045;-81
2020/12/10 05:28:49;;;;;;;139.57;39.97;;;;;;;;;;5061377;28;20056;-81
2020/12/10 05:31:20;;;;;;;121.90;38.83;;;;;;;;;;5061626;28;20056;-81
2020/12/10 05:33:59;;;;;;;130.02;38.50;;;;;;;;;;5087372;28;20126;-81
2020/12/10 05:36:26;;;;;;;133.98;39.90;;;;;;;;;;5054603;28;20053;-80
2020/12/10 05:39:03;;;;;;;144.82;40.65;;;;;;;;;;5066673;28;20053;-81
2020/12/10 05:41:33;;;;;;;137.50;41.28;;;;;;;;;;5077716;28;20114;-81
2020/12/10 05:44:16;;;;;;;130.95;40.70;;;;;;;;;;5059730;28;20068;-81
2020/12/10 05:46:43;;;;;;;137.23;40.00;;;;;;;;;;5054425;28;20614;-81
2020/12/10 05:49:13;;;;;;;142.02;40.67;;;;;;;;;;5071674;28;20041;-81
2020/12/10 05:51:46;;;;;;;137.63;39.47;;;;;;;;;;5054628;28;20045;-82
2020/12/10 05:54:13;;;;;;;149.07;42.60;;;;;;;;;;5056323;28;20071;-80
2020/12/10 05:57:01;;;;;;;141.88;41.03;;;;;;;;;;5058863;28;20048;-80
2020/12/10 05:59:30;;;;;;;138.82;42.92;;;;;;;;;;5073486;28;20052;-81
2020/12/10 06:01:57;;;;;;;157.15;45.08;;;;;;;;;;5066846;28;20056;-81
2020/12/10 06:04:24;;;;;;;171.23;50.53;;;;;;;;;;5051598;28;20075;-81
2020/12/10 06:06:51;;;;;;;168.00;48.40;;;;;;;;;;5046260;28;20064;-81
2020/12/10 06:09:18;;;;;;;156.88;47.03;;;;;;;;;;5067155;28;20140;-81
2020/12/10 06:11:48;;;;;;;161.25;44.53;;;;;;;;;;5060177;28;20045;-82
2020/12/10 06:14:20;;;;;;;155.65;44.22;;;;;;;;;;5079505;28;20614;-82
2020/12/10 06:16:48;;;;;;;159.88;44.72;;;;;;;;;;5072982;28;20071;-80
2020/12/10 06:19:15;;;;;;;151.95;44.75;;;;;;;;;;5056593;28;20052;-81
2020/12/10 06:21:45;;;;;;;155.43;44.88;;;;;;;;;;5077976;28;20048;-80
2020/12/10 06:24:24;;;;;;;164.88;43.83;;;;;;;;;;5073622;28;20041;-82
2020/12/10 06:26:57;;;;;;;154.63;42.90;;;;;;;;;;5056334;28;20059;-82
2020/12/10 06:29:25;;;;;;;141.00;41.80;;;;;;;;;;5054187;28;20230;-82
2020/12/10 06:32:14;;;;;;;139.93;40.90;;;;;;;;;;5054236;28;20162;-82
2020/12/10 06:34:50;;;;;;;146.48;39.90;;;;;;;;;;5063913;28;20049;-82
2020/12/10 06:37:19;;;;;;;145.98;42.03;;;;;;;;;;5070883;28;20060;-81
2020/12/10 06:39:47;;;;;;;164.68;41.97;;;;;;;;;;5062600;28;20044;-80
2020/12/10 06:42:13;;;;;;;144.77;40.42;;;;;;;;;;5071718;28;20052;-81
2020/12/10 06:44:46;;;;;;;156.55;43.30;;;;;;;;;;5060318;28;20098;-81
2020/12/10 06:47:12;;;;;;;138.45;42.60;;;;;;;;;;5060801;28;20041;-82
2020/12/10 06:49:48;;;;;;;155.18;42.47;;;;;;;;;;5085694;28;20108;-82
2020/12/10 06:52:18;;;;;;;155.45;44.63;;;;;;;;;;5085351;28;20032;-82
2020/12/10 06:55:06;;;;;;;159.15;43.80;;;;;;;;;;5076451;28;20596;-80
2020/12/10 06:57:59;;;;;;;139.10;40.90;;;;;;;;;;5072757;28;20130;-81
2020/12/10 07:00:35;;;;;;;129.60;40.03;;;;;;;;;;5055518;28;20045;-81
2020/12/10 07:03:26;;;;;;;130.25;42.08;;;;;;;;;;5067216;28;20219;-81
2020/12/10 07:05:53;;;;;;;137.60;40.33;;;;;;;;;;5054920;28;20137;-81
2020/12/10 07:08:22;;;;;;;119.50;37.50;;;;;;;;;;5048532;28;20047;-80
2020/12/10 07:10:52;;;;;;;134.95;40.58;;;;;;;;;;5076777;28;20048;-81
2020/12/10 07:13:33;;;;;;;116.93;38.22;;;;;;;;;;5061434;28;20048;-81
2020/12/10 07:16:05;;;;;;;127.45;38.42;;;;;;;;;;5079241;28;20055;-80
2020/12/10 07:18:31;;;;;;;134.82;41.92;;;;;;;;;;5061600;28;20082;-81
2020/12/10 07:21:07;;;;;;;126.88;39.53;;;;;;;;;;5051545;28;20048;-80
2020/12/10 07:23:36;;;;;;;112.70;38.22;;;;;;;;;;5062545;28;20068;-81
2020/12/10 07:26:06;;;;;;;106.80;37.08;;;;;;;;;;5054439;28;20044;-81
2020/12/10 07:28:32;;;;;;;114.13;36.30;;;;;;;;;;5055142;28;20052;-80
2020/12/10 07:31:15;;;;;;;118.25;40.47;;;;;;;;;;5057417;28;20131;-81
2020/12/10 07:33:41;;;;;;;110.13;37.75;;;;;;;;;;5057481;28;20094;-81
2020/12/10 07:36:08;;;;;;;123.18;38.63;;;;;;;;;;5048984;28;20037;-80
2020/12/10 07:38:35;;;;;;;115.38;37.67;;;;;;;;;;5050713;28;20064;-80
2020/12/10 07:41:02;;;;;;;111.35;38.75;;;;;;;;;;5050288;28;20678;-80
2020/12/10 07:43:34;;;;;;;126.90;38.15;;;;;;;;;;5072708;28;20156;-81
2020/12/10 07:46:06;;;;;;;124.80;39.58;;;;;;;;;;5050497;28;20071;-80
2020/12/10 07:48:35;;;;;;;119.35;40.40;;;;;;;;;;5067532;28;20094;-80
2020/12/10 07:51:21;;;;;;;128.13;38.17;;;;;;;;;;5068766;28;20048;-81
2020/12/10 07:53:48;;;;;;;117.75;35.40;;;;;;;;;;5081850;28;20044;-81
2020/12/10 07:56:24;;;;;;;128.77;39.17;;;;;;;;;;5071754;28;20397;-81
2020/12/10 07:59:00;;;;;;;125.72;37.47;;;;;;;;;;5051404;28;20076;-81
2020/12/10 08:01:29;;;;;;;121.70;36.47;;;;;;;;;;5048850;28;20044;-81
2020/12/10 08:04:19;;;;;;;120.47;38.08;;;;;;;;;;5070826;28;20055;-81
2020/12/10 08:06:50;;;;;;;120.00;38.80;;;;;;;;;;5067339;28;20036;-80
2020/12/10 08:09:19;;;;;;;117.88;36.15;;;;;;;;;;5054261;28;20045;-80
2020/12/10 08:12:04;;;;;;;123.13;37.72;;;;;;;;;;5053370;28;20112;-81
2020/12/10 08:14:31;;;;;;;128.13;40.33;;;;;;;;;;5049861;28;20056;-81
2020/12/10 08:16:59;;;;;;;128.50;38.40;;;;;;;;;;5047837;28;20080;-81
2020/12/10 08:19:32;;;;;;;119.20;37.97;;;;;;;;;;5065620;28;20048;-80
2020/12/10 08:21:58;;;;;;;131.57;40.45;;;;;;;;;;5055397;28;20056;-81
2020/12/10 08:24:42;;;;;;;121.78;36.05;;;;;;;;;;5051220;28;20723;-81
2020/12/10 08:27:14;;;;;;;133.38;38.22;;;;;;;;;;5042865;28;20115;-81
2020/12/10 08:30:02;;;;;;;112.38;37.28;;;;;;;;;;5050201;28;20045;-81
2020/12/10 08:32:28;;;;;;;110.88;36.20;;;;;;;;;;5060439;28;20048;-81
2020/12/10 08:35:02;;;;;;;140.32;38.65;;;;;;;;;;5048615;28;20044;-82
2020/12/10 08:37:35;;;;;;;138.38;38.28;;;;;;;;;;5051269;28;20041;-81
2020/12/10 08:40:02;;;;;;;147.75;39.25;;;;;;;;;;5056674;28;20071;-80
2020/12/10 08:42:29;;;;;;;135.30;39.45;;;;;;;;;;5051994;28;20125;-82
2020/12/10 08:44:55;;;;;;;122.78;40.17;;;;;;;;;;5059833;28;20052;-83
2020/12/10 08:47:33;;;;;;;133.20;39.65;;;;;;;;;;5044449;28;20041;-83
2020/12/10 08:50:27;;;;;;;139.88;39.95;;;;;;;;;;5045210;28;20041;-84
2020/12/10 08:53:00;;;;;;;154.45;44.63;;;;;;;;;;5043923;28;20433;-84
2020/12/10 08:55:40;;;;;;;138.70;39.22;;;;;;;;;;5061785;28;20406;-82
2020/12/10 08:58:08;;;;;;;146.82;41.80;;;;;;;;;;5048443;28;20059;-84
2020/12/10 09:00:35;;;;;;;150.07;41.38;;;;;;;;;;5066295;28;20174;-84
2020/12/10 09:03:02;;;;;;;175.82;43.70;;;;;;;;;;5043652;28;20416;-84
2020/12/10 09:05:28;;;;;;;157.68;41.95;;;;;;;;;;5047354;28;20048;-84
2020/12/10 09:07:55;;;;;;;141.80;43.83;;;;;;;;;;5044479;28;20045;-83
2020/12/10 09:10:23;;;;;;;152.60;41.72;;;;;;;;;;5036866;28;20053;-83
2020/12/10 09:12:59;;;;;;;161.05;41.47;;;;;;;;;;5033570;28;20052;-83
2020/12/10 09:15:38;;;;;;;123.72;38.10;;;;;;;;;;5055609;28;20059;-83
2020/12/10 09:18:04;;;;;;;127.63;35.90;;;;;;;;;;5044619;28;20313;-83
2020/12/10 09:20:30;;;;;;;132.25;38.30;;;;;;;;;;5038575;28;20186;-83
2020/12/10 09:22:57;;;;;;;128.15;37.42;;;;;;;;;;5038135;28;20053;-84
2020/12/10 09:25:26;;;;;;;125.68;35.25;;;;;;;;;;5039128;28;20256;-84
2020/12/10 09:27:52;;;;;;;115.43;35.22;;;;;;;;;;5051164;28;20128;-84
2020/12/10 09:30:19;;;;;;;127.07;35.47;;;;;;;;;;5033380;28;20040;-84
2020/12/10 09:32:45;;;;;;;135.70;38.50;;;;;;;;;;5059577;28;20044;-84
2020/12/10 09:35:12;;;;;;;118.45;34.38;;;;;;;;;;5047513;28;20037;-84
2020/12/10 09:37:39;;;;;;;116.65;35.13;;;;;;;;;;5067207;28;20041;-85
2020/12/10 09:40:07;;;;;;;115.57;35.53;;;;;;;;;;5033425;28;20057;-85
2020/12/10 09:42:40;;;;;;;126.70;39.55;;;;;;;;;;5053635;28;20049;-84
2020/12/10 09:45:11;;;;;;;124.80;36.95;;;;;;;;;;5036280;28;20049;-85
2020/12/10 09:47:42;;;;;;;126.00;34.90;;;;;;;;;;5035038;28;20336;-84
2020/12/10 09:50:19;;;;;;;121.50;34.28;;;;;;;;;;5035824;28;20053;-85
2020/12/10 09:53:04;;;;;;;118.07;34.08;;;;;;;;;;5036268;28;20269;-85
2020/12/10 09:58:18;;;;;;;121.53;33.75;;;;;;;;;;5071206;28;20069;-85
2020/12/10 10:00:49;;;;;;;105.60;33.03;;;;;;;;;;5056070;28;20427;-86
2020/12/10 10:03:16;;;;;;;109.72;32.58;;;;;;;;;;5055932;28;20202;-85
2020/12/10 10:05:53;;;;;;;93.15;29.98;;;;;;;;;;5082805;28;20062;-86
2020/12/10 10:08:27;;;;;;;93.43;29.13;;;;;;;;;;5070122;28;20166;-86
2020/12/10 10:11:00;;;;;;;93.30;30.30;;;;;;;;;;5064334;28;20055;-86
2020/12/10 10:13:31;;;;;;;83.80;26.50;;;;;;;;;;5039189;28;20072;-86
2020/12/10 10:16:02;;;;;;;83.57;27.17;;;;;;;;;;5056626;28;20113;-86
2020/12/10 10:18:31;;;;;;;87.55;28.88;;;;;;;;;;5066898;28;20049;-84
2020/12/10 10:20:57;;;;;;;78.95;25.40;;;;;;;;;;5054253;28;20049;-85
2020/12/10 10:23:25;;;;;;;85.28;26.50;;;;;;;;;;5070720;28;20045;-86
2020/12/10 10:25:52;;;;;;;80.93;27.10;;;;;;;;;;5061613;28;20155;-86
2020/12/10 10:28:20;;;;;;;87.68;27.13;;;;;;;;;;5059525;28;20047;-86
2020/12/10 10:30:49;;;;;;;79.45;26.55;;;;;;;;;;5046665;28;20208;-87
2020/12/10 10:33:22;;;;;;;77.65;26.52;;;;;;;;;;5042181;28;20068;-85
2020/12/10 10:35:53;;;;;;;73.18;25.10;;;;;;;;;;5058051;28;20118;-84
2020/12/10 10:38:23;;;;;;;69.30;23.48;;;;;;;;;;5058193;28;20053;-85
2020/12/10 10:40:49;;;;;;;72.57;24.02;;;;;;;;;;5039902;28;20335;-85
2020/12/10 10:43:15;;;;;;;67.90;25.00;;;;;;;;;;5050259;28;20048;-85
2020/12/10 10:45:42;;;;;;;71.88;25.27;;;;;;;;;;5071750;28;20064;-86
2020/12/10 10:48:09;;;;;;;73.22;25.13;;;;;;;;;;5070176;28;20048;-85
2020/12/10 10:50:35;;;;;;;73.05;25.98;;;;;;;;;;5060711;28;20052;-85
2020/12/10 10:53:02;;;;;;;64.78;23.90;;;;;;;;;;5051358;28;20120;-86
2020/12/10 10:55:28;;;;;;;70.72;23.35;;;;;;;;;;5047356;28;20230;-88
2020/12/10 10:57:57;;;;;;;68.20;23.10;;;;;;;;;;5047239;28;20283;-86
2020/12/10 11:00:27;;;;;;;65.80;23.05;;;;;;;;;;5041625;28;20057;-87
2020/12/10 11:02:56;;;;;;;64.82;25.63;;;;;;;;;;5045644;28;20458;-85
2020/12/10 11:05:23;;;;;;;59.83;23.35;;;;;;;;;;5044908;28;20063;-87
2020/12/10 11:07:50;;;;;;;60.33;22.17;;;;;;;;;;5066743;28;20048;-87
2020/12/10 11:10:21;;;;;;;67.55;25.13;;;;;;;;;;5062411;28;20056;-87
2020/12/10 11:12:51;;;;;;;55.00;22.67;;;;;;;;;;5057280;28;20053;-87
2020/12/10 11:15:19;;;;;;;60.97;22.67;;;;;;;;;;5059354;28;20049;-87
2020/12/10 11:17:46;;;;;;;52.92;21.83;;;;;;;;;;5045430;28;20104;-87
2020/12/10 11:20:13;;;;;;;54.95;22.20;;;;;;;;;;5060090;28;20049;-87
2020/12/10 11:22:40;;;;;;;60.08;22.35;;;;;;;;;;5048014;28;20077;-87
2020/12/10 11:25:06;;;;;;;52.80;22.10;;;;;;;;;;5042418;28;20172;-88
2020/12/10 11:27:36;;;;;;;59.92;20.52;;;;;;;;;;5049140;28;20139;-87
2020/12/10 11:30:04;;;;;;;50.30;19.77;;;;;;;;;;5060599;28;20044;-87
2020/12/10 11:32:34;;;;;;;58.20;23.73;;;;;;;;;;5079209;28;20055;-87
2020/12/10 11:35:10;;;;;;;55.72;22.25;;;;;;;;;;5060757;28;20056;-88
2020/12/10 11:37:38;;;;;;;55.83;21.05;;;;;;;;;;5059885;28;20156;-87
2020/12/10 11:40:07;;;;;;;54.15;21.83;;;;;;;;;;5059809;28;20079;-87
2020/12/10 11:42:37;;;;;;;55.92;21.77;;;;;;;;;;5049388;28;20068;-86
2020/12/10 11:45:06;;;;;;;48.67;21.05;;;;;;;;;;5041205;28;20383;-86
2020/12/10 11:47:39;;;;;;;56.45;21.35;;;;;;;;;;5057838;28;20080;-85
2020/12/10 11:50:36;;;;;;;58.83;21.48;;;;;;;;;;5061784;28;20052;-87
2020/12/10 11:53:21;;;;;;;49.75;20.23;;;;;;;;;;5079691;28;20255;-86
2020/12/10 11:56:16;;;;;;;57.85;21.92;;;;;;;;;;5057672;28;20137;-85
2020/12/10 11:58:50;;;;;;;53.60;21.27;;;;;;;;;;5077612;28;20056;-85
2020/12/10 12:01:22;;;;;;;51.42;20.25;;;;;;;;;;5055907;28;20110;-85
2020/12/10 12:04:09;;;;;;;53.85;21.30;;;;;;;;;;5065916;28;20048;-85
2020/12/10 12:06:39;;;;;;;52.97;20.13;;;;;;;;;;5072559;28;20387;-85
2020/12/10 12:09:06;;;;;;;57.38;21.85;;;;;;;;;;5056757;28;20049;-84
2020/12/10 12:11:42;;;;;;;55.47;20.52;;;;;;;;;;5074517;28;20064;-84
2020/12/10 12:14:09;;;;;;;50.47;20.67;;;;;;;;;;5073252;28;20044;-83
2020/12/10 12:16:37;;;;;;;57.38;22.40;;;;;;;;;;5053966;28;20109;-83
2020/12/10 12:19:08;;;;;;;50.22;20.48;;;;;;;;;;5056967;28;20048;-84
2020/12/10 12:21:34;;;;;;;45.97;19.33;;;;;;;;;;5059494;28;20079;-83
2020/12/10 12:24:06;;;;;;;51.63;21.23;;;;;;;;;;5048157;28;20045;-84
2020/12/10 12:26:33;;;;;;;51.53;21.42;;;;;;;;;;5048131;28;20069;-85
2020/12/10 12:29:00;;;;;;;52.17;22.10;;;;;;;;;;5040816;28;20053;-84
2020/12/10 12:31:36;;;;;;;52.25;22.75;;;;;;;;;;5051447;28;20051;-84
2020/12/10 12:34:07;;;;;;;57.35;21.88;;;;;;;;;;5062939;28;20036;-84
2020/12/10 12:36:34;;;;;;;50.20;20.33;;;;;;;;;;5077655;28;20056;-84
2020/12/10 12:39:02;;;;;;;48.50;21.58;;;;;;;;;;5047509;28;20260;-83
2020/12/10 12:41:29;;;;;;;48.55;21.05;;;;;;;;;;5061751;28;20057;-84
2020/12/10 12:43:56;;;;;;;48.22;21.30;;;;;;;;;;5048832;28;20209;-84
2020/12/10 12:46:26;;;;;;;45.90;22.20;;;;;;;;;;5068145;28;20048;-83
2020/12/10 12:48:59;;;;;;;50.65;20.77;;;;;;;;;;5045008;28;20409;-83
2020/12/10 12:51:26;;;;;;;50.40;21.17;;;;;;;;;;5070434;28;20040;-83
2020/12/10 12:53:56;;;;;;;45.92;21.35;;;;;;;;;;5065138;28;20108;-82
2020/12/10 12:56:22;;;;;;;46.50;21.92;;;;;;;;;;5070913;28;20129;-83
2020/12/10 12:58:58;;;;;;;47.63;21.27;;;;;;;;;;5061430;28;20209;-83
2020/12/10 13:01:49;;;;;;;50.42;22.35;;;;;;;;;;5057771;28;20052;-84
2020/12/10 13:04:21;;;;;;;49.25;21.40;;;;;;;;;;5062567;28;20537;-82
2020/12/10 13:06:52;;;;;;;47.72;22.13;;;;;;;;;;5046163;28;20068;-83
2020/12/10 13:09:19;;;;;;;43.15;20.10;;;;;;;;;;5067674;28;20087;-83
2020/12/10 13:11:49;;;;;;;46.78;21.80;;;;;;;;;;5050162;28;20055;-84
2020/12/10 13:14:16;;;;;;;44.92;21.35;;;;;;;;;;5049584;28;20063;-83
2020/12/10 13:16:43;;;;;;;44.47;20.42;;;;;;;;;;5049271;28;20052;-85
2020/12/10 13:19:10;;;;;;;43.83;21.20;;;;;;;;;;5064287;28;20055;-81
2020/12/10 13:21:41;;;;;;;44.22;20.23;;;;;;;;;;5050390;28;20041;-83
2020/12/10 13:24:10;;;;;;;42.63;20.25;;;;;;;;;;5069295;28;20048;-82
2020/12/10 13:26:38;;;;;;;44.10;21.73;;;;;;;;;;5063249;28;20207;-83
2020/12/10 13:29:08;;;;;;;48.90;22.17;;;;;;;;;;5062701;28;20421;-83
2020/12/10 13:31:35;;;;;;;41.97;21.25;;;;;;;;;;5056365;28;20135;-83
2020/12/10 13:34:03;;;;;;;46.83;22.80;;;;;;;;;;5074669;28;20060;-82
2020/12/10 13:36:29;;;;;;;47.88;21.80;;;;;;;;;;5055973;28;20044;-83
2020/12/10 13:39:00;;;;;;;43.38;21.05;;;;;;;;;;5062208;28;20179;-82
2020/12/10 13:41:30;;;;;;;40.97;21.63;;;;;;;;;;5058241;28;20098;-82
2020/12/10 13:43:59;;;;;;;45.90;21.45;;;;;;;;;;5068664;28;20036;-82
2020/12/10 13:46:28;;;;;;;42.10;21.23;;;;;;;;;;5054345;28;20032;-82
2020/12/10 13:49:05;;;;;;;41.55;20.70;;;;;;;;;;5051753;28;20045;-82
2020/12/10 13:51:34;;;;;;;39.05;21.38;;;;;;;;;;5063601;28;20070;-82
2020/12/10 13:54:03;;;;;;;40.42;20.70;;;;;;;;;;5049050;28;20196;-82
2020/12/10 13:56:29;;;;;;;41.70;20.85;;;;;;;;;;5041063;28;20045;-82
2020/12/10 13:58:55;;;;;;;43.83;21.58;;;;;;;;;;5058284;28;20065;-82
2020/12/10 14:01:32;;;;;;;42.92;21.42;;;;;;;;;;5072442;28;20039;-82
2020/12/10 14:04:01;;;;;;;44.50;22.45;;;;;;;;;;5067848;28;20048;-82
2020/12/10 14:06:30;;;;;;;48.97;23.33;;;;;;;;;;5071148;28;20114;-82
2020/12/10 14:09:00;;;;;;;48.95;22.30;;;;;;;;;;5056812;28;20225;-82
2020/12/10 14:11:26;;;;;;;58.35;25.25;;;;;;;;;;5059421;28;20040;-82
2020/12/10 14:14:05;;;;;;;47.17;22.65;;;;;;;;;;5055593;28;20621;-82
2020/12/10 14:16:31;;;;;;;55.40;23.25;;;;;;;;;;5054180;28;20122;-82
2020/12/10 14:19:02;;;;;;;48.25;22.08;;;;;;;;;;5046770;28;20071;-82
2020/12/10 14:21:31;;;;;;;54.20;24.95;;;;;;;;;;5053137;28;20075;-81
2020/12/10 14:24:01;;;;;;;43.13;22.48;;;;;;;;;;5052191;28;20284;-82
2020/12/10 14:26:29;;;;;;;49.95;23.75;;;;;;;;;;5045338;28;20420;-81
2020/12/10 14:28:56;;;;;;;61.63;29.25;;;;;;;;;;5073453;28;20048;-82
2020/12/10 14:31:30;;;;;;;46.22;21.30;;;;;;;;;;5055125;28;20049;-82
2020/12/10 14:33:59;;;;;;;55.97;23.33;;;;;;;;;;5050684;28;20055;-82
2020/12/10 14:36:28;;;;;;;45.90;21.65;;;;;;;;;;5073475;28;20149;-81